Flight Track Log - Related Links

Times and Time Zones

All times are in EDT time to prevent confusion due to time zone crossing. See the UAL395 flight status page for this flight to view local times or setup timezone preferences in your user account.

Time Position Orientation Groundspeed Altitude Reporting Facility
EDT Latitude Longitude Course Direction KTS MPH feet Rate Location/Type
Fri 03:18:52 PM 38.9667 -77.5333 293° West 187 215 1,800  Level Potomac TRACON
Fri 03:21:00 PM 39.2533 -77.5300 349° North  Level FlightAware Approximate
Fri 03:21:16 PM 39.1025 -77.6325 330° Northwest 261 300 8,500  Level Washington Center
Fri 03:22:00 PM 39.3613 -77.5688 344° North  Level FlightAware Approximate
Fri 03:22:17 PM 39.1833 -77.6642 343° North 279 321 10,600  Level Washington Center
Fri 03:23:00 PM 39.4568 -77.6104 288° West  Level FlightAware Approximate
Fri 03:23:18 PM 39.2783 -77.7150 338° Northwest 322 371 12,000  Level Washington Center
Fri 03:24:00 PM 39.4936 -77.7475 293° West  Level FlightAware Approximate
Fri 03:24:17 PM 39.3814 -77.7719 337° Northwest 369 425 14,200  Level Washington Center
Fri 03:25:17 PM 39.4886 -77.8317 337° Northwest 399 459 16,300 1,388 Climbing Washington Center
Fri 03:26:18 PM 39.5658 -77.9361 314° West 405 466 17,000 1,120 Climbing Washington Center
Fri 03:28:46 PM 39.6711 -78.2961 291° West 421 484 20,200 1,385 Climbing Cleveland Center
Fri 03:29:46 PM 39.7136 -78.4458 290° West 441 507 21,800 1,450 Climbing Cleveland Center
Fri 03:30:46 PM 39.7600 -78.5983 292° West 447 514 23,100 1,150 Climbing Cleveland Center
Fri 03:31:46 PM 39.8003 -78.7592 288° West 453 521 24,100 900 Climbing Cleveland Center
Fri 03:32:46 PM 39.8486 -78.9200 291° West 464 534 24,900 800 Climbing Cleveland Center
Fri 03:33:46 PM 39.8967 -79.0731 292° West 489 563 25,700 1,000 Climbing Cleveland Center
Fri 03:34:46 PM 39.9425 -79.2400 290° West 494 568 26,900 1,150 Climbing Cleveland Center
Fri 03:35:46 PM 40.0006 -79.3989 296° West 494 568 28,000 550 Climbing Cleveland Center
Fri 03:36:46 PM 40.0750 -79.5494 303° West 489 563 28,000  Level Cleveland Center
Fri 03:37:46 PM 40.1492 -79.6950 304° West 489 563 28,000  Level Cleveland Center
Fri 03:38:46 PM 40.2253 -79.8433 304° West 489 563 28,000 150 Level Cleveland Center
Fri 03:39:46 PM 40.2992 -79.9869 304° West 489 563 28,300 850 Climbing Cleveland Center
Fri 03:40:46 PM 40.3769 -80.1553 301° West 494 568 29,700 1,488 Climbing Cleveland Center
Fri 03:41:47 PM 40.4503 -80.2994 304° West 494 568 31,300 1,450 Climbing Cleveland Center
Fri 03:42:46 PM 40.5278 -80.4439 305° West 489 563 32,600 1,210 Climbing Cleveland Center
Fri 03:43:46 PM 40.5842 -80.5586 303° West 479 551 33,700 600 Climbing Cleveland Center
Fri 03:44:46 PM 40.6717 -80.7308 304° West 473 544 33,800 -650 Climbing Cleveland Center
Fri 03:45:46 PM 40.7400 -80.8708 303° West 473 544 32,400 -893 Descending Cleveland Center
Fri 03:46:47 PM 40.8125 -81.0194 303° West 473 544 32,000 -200 Descending Cleveland Center
Fri 03:47:46 PM 40.8808 -81.1681 301° West 473 544 32,000  Level Cleveland Center
Fri 03:48:46 PM 40.9447 -81.3006 303° West 473 544 32,000  Level Cleveland Center
Fri 03:49:46 PM 41.0144 -81.4472 302° West 475 547 32,000  Level Cleveland Center
Fri 03:50:46 PM 41.0842 -81.5942 302° West 475 547 32,000  Level Cleveland Center
Fri 03:51:46 PM 41.1681 -81.7581 304° West 480 552 32,000  Level Cleveland Center
Fri 03:52:46 PM 41.2394 -81.9058 303° West 480 552 32,000  Level Cleveland Center
Fri 03:53:46 PM 41.3106 -82.0536 303° West 480 552 32,000  Level Cleveland Center
Fri 03:54:46 PM 41.3942 -82.1886 310° West 482 555 32,000  Level Cleveland Center
Fri 03:55:46 PM 41.4989 -82.2992 322° Northwest 472 543 32,000  Level Cleveland Center
Fri 03:56:46 PM 41.6058 -82.4019 324° Northwest 477 549 32,000  Level Cleveland Center
Fri 03:57:46 PM 41.6981 -82.4908 324° Northwest 469 540 32,000  Level Cleveland Center
Fri 03:58:46 PM 41.8067 -82.5972 324° Northwest 474 545 32,000 -50 Level Cleveland Center
Fri 03:59:46 PM 41.9133 -82.6983 325° Northwest 474 545 31,900  Descending Cleveland Center
Fri 04:00:46 PM 42.0197 -82.8025 324° Northwest 474 545 32,000 50 Climbing Cleveland Center
Fri 04:01:46 PM 42.1283 -82.9069 325° Northwest 474 545 32,000  Level Cleveland Center
Fri 04:02:46 PM 42.2364 -83.0147 324° Northwest 474 545 32,000  Level Cleveland Center
Fri 04:03:46 PM 42.3447 -83.1200 324° Northwest 474 545 32,000  Level Cleveland Center
Fri 04:04:46 PM 42.4528 -83.2256 324° Northwest 474 545 32,000 -50 Level Cleveland Center
Fri 04:05:46 PM 42.5606 -83.3344 323° Northwest 474 545 31,900  Descending Cleveland Center
Fri 04:06:46 PM 42.6664 -83.4408 324° Northwest 474 545 32,000 50 Climbing Cleveland Center
Fri 04:07:47 PM 42.7681 -83.5472 322° Northwest 474 545 32,000  Level Cleveland Center
Fri 04:08:46 PM 42.8717 -83.6542 323° Northwest 469 540 32,000  Level Cleveland Center
Fri 04:09:46 PM 42.9300 -83.8075 297° West 451 519 32,000 -500 Level Cleveland Center
Fri 04:10:46 PM 42.9139 -84.0022 264° West 447 514 31,000 -800 Descending Cleveland Center
Fri 04:11:46 PM 42.9022 -84.1775 265° West 452 520 30,400 -700 Descending Cleveland Center
Fri 04:12:46 PM 42.8939 -84.3131 265° West 458 527 29,600 -900 Descending Cleveland Center
Fri 04:13:46 PM 42.8794 -84.4964 264° West 458 527 28,600 -814 Descending Cleveland Center
Fri 04:14:44 PM 42.8681 -84.6694 265° West 456 525 28,000 -550 Descending Chicago Center
Fri 04:15:46 PM 42.8547 -84.8397 264° West 455 524 27,500 -919 Descending Chicago Center
Fri 04:16:48 PM 42.8400 -85.0117 263° West 456 525 26,100 -726 Descending Chicago Center
Fri 04:17:50 PM 42.8206 -85.1831 261° West 458 527 26,000 -48 Descending Chicago Center
Fri 04:18:52 PM 42.7986 -85.3869 262° West 454 522 26,000  Level Chicago Center
Fri 04:19:54 PM 42.7764 -85.5589 260° West 458 527 26,000 -387 Level Chicago Center
Fri 04:20:56 PM 42.7461 -85.7208 256° West 445 512 25,200 -912 Descending Chicago Center
Fri 04:21:59 PM 42.7217 -85.8556 256° West 374 430 24,100 -1,104 Descending Chicago Center
Fri 04:23:01 PM 42.6994 -85.9811 256° West 344 396 22,900 -1,258 Descending Chicago Center
Fri 04:24:03 PM 42.6764 -86.1022 256° West 333 383 21,500 -1,355 Descending Chicago Center
Fri 04:25:05 PM 42.6561 -86.2172 257° West 317 365 20,100 -1,258 Descending Chicago Center
Fri 04:26:07 PM 42.6344 -86.3283 255° West 306 352 18,900 -1,452 Descending Chicago Center
Fri 04:27:09 PM 42.6097 -86.4611 256° West 304 350 17,100 -1,548 Descending Chicago Center
Fri 04:28:11 PM 42.5897 -86.5694 256° West 299 344 15,700 -1,403 Descending Chicago Center
Fri 04:29:13 PM 42.5686 -86.6764 255° West 294 338 14,200 -1,488 Descending Chicago Center
Fri 04:30:16 PM 42.5469 -86.7797 254° West 289 333 12,600 -1,488 Descending Chicago Center
Fri 04:31:18 PM 42.5197 -86.8778 249° West 281 323 11,100 -774 Descending Chicago Center
Fri 04:32:20 PM 42.4922 -86.9783 250° West 285 328 11,000 -242 Descending Chicago Center
Fri 04:33:22 PM 42.4589 -87.0925 248° West 274 315 10,600 -871 Descending Chicago Center
Fri 04:34:24 PM 42.4347 -87.1858 251° West 266 306 9,200 -823 Descending Chicago Center
Fri 04:35:26 PM 42.4089 -87.2781 249° West 264 304 8,900 -145 Descending Chicago Center
Fri 04:36:28 PM 42.3794 -87.3675 246° West 262 302 8,900  Level Chicago Center
Fri 04:37:30 PM 42.3444 -87.4589 243° Southwest 263 303 8,900  Level Chicago Center
Fri 04:38:32 PM 42.3161 -87.5475 247° West 260 299 8,900  Level Chicago Center
Fri 04:39:34 PM 42.3217 -87.6236 276° West 222 255 8,900 -432 Level Chicago Center
Fri 04:40:37 PM 42.2686 -87.6097 169° South 207 238 8,000 -912 Descending Chicago Center
Fri 04:41:39 PM 42.2269 -87.6061 176° South 206 237 7,000 -1,016 Descending Chicago Center
Fri 04:42:41 PM 42.2078 -87.6589 244° Southwest 163 188 5,900 -871 Descending Chicago Center
Fri 04:43:43 PM 42.1744 -87.7011 223° Southwest 171 197 5,200 -871 Descending Chicago Center
Fri 04:44:45 PM 42.1344 -87.7444 219° Southwest 161 185 4,100 -871 Descending Chicago Center
Fri 04:45:47 PM 42.1022 -87.7800 219° Southwest 152 175 3,400 -677 Descending Chicago Center

Login

Don't have an account? Register now (free) for customized features, flight alerts, and more!